Quentin, Mississippi
Current Conditions -  °F | °C
As of 7:35 PM on Sunday 23 Nov 2014 (Local Time) from K1R7 Reporting Station
Clear Clear  
Wind Chill: 64°   Ceiling: Unl
Heat Index: 64°   Visibility: 10mi
Dew Point: 61°   Wind: 10mph
Humidity: 88%   Direction: 180°S
Pressure: 29.63"   Gusts: NA
Location:  31.5295°N, 90.7634°W
Report Text: K1R7 240135Z AUTO 18009KT 10SM CLR 18/16 A2963 RMK AO2
Loading
Personal Weather Stations






























Interactive Weather Map New forecast layout! Learn more

10-Day Weather Forecast

Advertisements
Track Severe Weather on mobile